Portada
METAR-TAF:

METAR-TAF

Aeroports :

Lonesome Pine Airport

Wise, Virgínia, Estats Units d'Amèrica

latitud: 36-59N, longitud: 082-32W, altitud: 817 m

Observació

L'informe es va fer fa 33 minuts, a les 06:55 UTC
Vent calma
Temperatura 20°C
Humitat 83%
Pressió 1019 hPa
Visibilitat: 16.1 km
Cel clar

METAR: KLNP 230655Z AUTO 00000KT 10SM CLR 20/17 A3009 RMK AO2

Hora: 03:28 (07:28 UTC)


TAF: manca

Observacions i pronòstics meteorològics de més de 4000 aeroports (METAR i TAF).

Les estacions disponibles són els punts grocs i vermells al mapa.

Posi el ratolí al punt desitjat per veure el nom de l'estació.

Feu clic per veure les observacions i els pronòstics meteorològics.

Per canviar el mapa: feu clic els botons verds amb una creu de color negre per apropar; al botó verd amb un guió per allunyar la imatge; o en les fletxes verdes per a mapes adjacents.


METAR-TAF: